createdAt,value
2018-11-25T00:00:46.770Z,97878.60
2018-11-25T00:03:15.328Z,97875.08
2018-11-25T00:05:43.786Z,97869.89
2018-11-25T00:08:12.270Z,97874.28
2018-11-25T00:10:40.754Z,97872.56
2018-11-25T00:13:09.269Z,97869.37
2018-11-25T00:17:02.114Z,97865.80
2018-11-25T00:19:30.607Z,97864.94
2018-11-25T00:21:59.092Z,97868.77
2018-11-25T00:24:27.598Z,97863.39
2018-11-25T00:26:56.095Z,97864.11
2018-11-25T00:29:24.647Z,97867.67
2018-11-25T00:31:53.217Z,97862.52
2018-11-25T00:34:21.731Z,97858.23
2018-11-25T00:36:50.186Z,97859.19
2018-11-25T00:39:18.699Z,97861.30
2018-11-25T00:41:47.242Z,97851.37
2018-11-25T00:44:15.768Z,97850.31
2018-11-25T00:46:44.281Z,97847.30
2018-11-25T00:49:12.803Z,97847.88
2018-11-25T00:51:41.287Z,97845.76
2018-11-25T00:54:09.806Z,97840.44
2018-11-25T00:56:38.302Z,97839.98
2018-11-25T00:59:06.853Z,97842.33
2018-11-25T01:01:35.331Z,97838.13
2018-11-25T01:04:03.867Z,97838.03
2018-11-25T01:06:32.395Z,97835.88
2018-11-25T01:09:00.914Z,97834.66
2018-11-25T01:11:29.397Z,97832.91
2018-11-25T01:13:57.973Z,97832.02
2018-11-25T01:16:26.449Z,97824.77
2018-11-25T01:18:54.930Z,97829.98
2018-11-25T01:21:23.410Z,97825.19
2018-11-25T01:23:51.916Z,97818.36
2018-11-25T01:26:20.385Z,97826.55
2018-11-25T01:28:48.909Z,97823.67
2018-11-25T01:31:17.356Z,97823.28
2018-11-25T01:33:45.859Z,97827.40
2018-11-25T01:36:14.327Z,97825.52
2018-11-25T01:38:42.854Z,97825.20
2018-11-25T01:41:11.355Z,97820.72
2018-11-25T01:43:39.850Z,97812.97
2018-11-25T01:46:08.313Z,97811.66
2018-11-25T01:48:36.838Z,97815.34
2018-11-25T01:51:05.488Z,97818.58
2018-11-25T01:53:34.019Z,97817.92
2018-11-25T01:56:02.519Z,97821.47
2018-11-25T01:58:31.008Z,97830.90
2018-11-25T02:00:59.487Z,97831.39
2018-11-25T02:03:27.966Z,97825.97
2018-11-25T02:05:56.458Z,97824.45
2018-11-25T02:08:24.974Z,97823.38
2018-11-25T02:10:53.660Z,97826.59
2018-11-25T02:13:22.162Z,97823.33
2018-11-25T02:15:50.663Z,97826.01
2018-11-25T02:18:19.134Z,97829.17
2018-11-25T02:20:47.647Z,97826.14
2018-11-25T02:23:16.126Z,97823.80
2018-11-25T02:25:44.653Z,97821.11
2018-11-25T02:28:13.121Z,97817.48
2018-11-25T02:30:41.614Z,97814.51
2018-11-25T02:33:10.070Z,97818.08
2018-11-25T02:35:38.588Z,97815.81
2018-11-25T02:38:07.102Z,97819.47
2018-11-25T02:40:35.617Z,97817.36
2018-11-25T02:43:04.100Z,97813.10
2018-11-25T02:45:32.645Z,97811.16
2018-11-25T02:48:01.124Z,97806.63
2018-11-25T02:50:31.108Z,97812.26
2018-11-25T02:53:01.579Z,97798.67
2018-11-25T02:55:30.125Z,97802.66
2018-11-25T02:57:58.579Z,97798.17
2018-11-25T03:00:27.104Z,97798.61
2018-11-25T03:02:55.562Z,97798.37
2018-11-25T03:05:24.077Z,97800.67
2018-11-25T03:07:52.607Z,97791.53
2018-11-25T03:10:21.110Z,97792.13
2018-11-25T03:12:49.610Z,97791.88
2018-11-25T03:15:18.528Z,97792.70
2018-11-25T03:17:47.023Z,97791.52
2018-11-25T03:20:16.435Z,97785.42
2018-11-25T03:22:44.978Z,97784.41
2018-11-25T03:25:17.495Z,97788.18
2018-11-25T03:27:46.094Z,97793.64
2018-11-25T03:30:16.385Z,97797.20
2018-11-25T03:32:45.682Z,97791.58
2018-11-25T03:35:14.663Z,97777.41
2018-11-25T03:37:43.158Z,97780.22
2018-11-25T03:40:12.813Z,97770.49
2018-11-25T03:42:41.328Z,97765.91
2018-11-25T03:45:14.884Z,97753.78
2018-11-25T03:47:43.391Z,97746.76
2018-11-25T03:50:12.667Z,97747.00
2018-11-25T03:52:41.147Z,97744.36
2018-11-25T03:55:13.398Z,97739.27
2018-11-25T03:57:41.903Z,97743.85
2018-11-25T04:00:15.002Z,97729.92
2018-11-25T04:02:43.579Z,97725.77
2018-11-25T04:05:13.478Z,97729.09
2018-11-25T04:07:41.983Z,97729.70
2018-11-25T04:10:12.723Z,97731.58
2018-11-25T04:12:41.226Z,97720.66
2018-11-25T04:15:13.769Z,97729.83
2018-11-25T04:17:42.272Z,97724.68
2018-11-25T04:20:13.874Z,97721.02
2018-11-25T04:22:42.358Z,97728.73
2018-11-25T04:25:11.589Z,97733.81
2018-11-25T04:27:40.100Z,97740.74
2018-11-25T04:30:12.762Z,97744.80
2018-11-25T04:32:41.302Z,97744.77
2018-11-25T04:35:10.835Z,97742.30
2018-11-25T04:37:39.369Z,97734.94
2018-11-25T04:40:09.439Z,97717.13
2018-11-25T04:42:37.953Z,97713.23
2018-11-25T04:45:08.259Z,97711.14
2018-11-25T04:47:36.734Z,97707.09
2018-11-25T04:50:10.222Z,97700.31
2018-11-25T04:52:38.695Z,97696.43
2018-11-25T04:55:08.885Z,97695.11
2018-11-25T04:57:37.372Z,97683.16
2018-11-25T05:00:09.178Z,97687.79
2018-11-25T05:02:37.678Z,97686.63
2018-11-25T05:05:07.768Z,97683.43
2018-11-25T05:07:36.282Z,97695.05
2018-11-25T05:10:06.056Z,97689.33
2018-11-25T05:12:34.558Z,97690.86
2018-11-25T05:15:03.075Z,97692.88
2018-11-25T05:17:31.568Z,97690.92
2018-11-25T05:20:00.093Z,97680.32
2018-11-25T05:22:28.573Z,97684.70
2018-11-25T05:24:57.069Z,97679.97
2018-11-25T05:27:25.544Z,97680.80
2018-11-25T05:29:54.051Z,97675.19
2018-11-25T05:32:22.521Z,97666.38
2018-11-25T05:34:51.019Z,97663.59
2018-11-25T05:37:19.502Z,97658.18
2018-11-25T05:39:49.865Z,97656.08
2018-11-25T05:42:18.362Z,97661.25
2018-11-25T05:44:46.847Z,97652.49
2018-11-25T05:47:15.293Z,97658.94
2018-11-25T05:49:43.825Z,97657.12
2018-11-25T05:52:12.287Z,97652.95
2018-11-25T05:54:40.790Z,97653.44
2018-11-25T05:57:09.278Z,97646.02
2018-11-25T05:59:37.742Z,97646.23
2018-11-25T06:02:06.622Z,97650.11
2018-11-25T06:04:35.120Z,97646.97
2018-11-25T06:07:03.588Z,97644.91
2018-11-25T06:09:32.097Z,97643.52
2018-11-25T06:12:00.598Z,97644.05
2018-11-25T06:14:29.095Z,97645.05
2018-11-25T06:17:06.399Z,97647.97
2018-11-25T06:19:34.924Z,97648.39
2018-11-25T06:22:03.428Z,97645.87
2018-11-25T06:24:31.905Z,97645.10
2018-11-25T06:27:00.406Z,97653.29
2018-11-25T06:29:28.926Z,97647.87
2018-11-25T06:31:57.443Z,97648.13
2018-11-25T06:34:25.891Z,97648.91
2018-11-25T06:36:54.393Z,97642.99
2018-11-25T06:39:22.851Z,97648.45
2018-11-25T06:41:51.334Z,97647.55
2018-11-25T06:44:19.819Z,97651.80
2018-11-25T06:46:48.430Z,97655.36
2018-11-25T06:49:16.916Z,97651.40
2018-11-25T06:51:45.422Z,97653.11
2018-11-25T06:54:13.882Z,97653.73
2018-11-25T06:56:42.397Z,97649.52
2018-11-25T06:59:10.883Z,97654.82
2018-11-25T07:01:39.372Z,97658.45
2018-11-25T07:04:08.732Z,97659.64
2018-11-25T07:06:37.276Z,97665.19
2018-11-25T07:09:11.211Z,97666.47
2018-11-25T07:11:39.735Z,97672.00
2018-11-25T07:14:08.306Z,97668.00
2018-11-25T07:16:36.854Z,97668.97
2018-11-25T07:19:05.939Z,97673.37
2018-11-25T07:21:34.636Z,97677.84
2018-11-25T07:24:03.142Z,97673.73
2018-11-25T07:26:31.667Z,97671.59
2018-11-25T07:29:01.499Z,97665.54
2018-11-25T07:31:30.019Z,97661.37
2018-11-25T07:33:58.486Z,97658.94
2018-11-25T07:36:26.969Z,97657.84
2018-11-25T07:38:55.578Z,97654.99
2018-11-25T07:41:24.054Z,97653.05
2018-11-25T07:43:52.502Z,97646.56
2018-11-25T07:46:20.999Z,97650.04
2018-11-25T07:48:49.445Z,97650.75
2018-11-25T07:51:17.949Z,97644.96
2018-11-25T07:53:46.443Z,97641.73
2018-11-25T07:56:14.955Z,97643.88
2018-11-25T07:58:43.443Z,97636.74
2018-11-25T08:01:11.922Z,97637.56
2018-11-25T08:03:40.398Z,97635.45
2018-11-25T08:06:08.906Z,97630.75
2018-11-25T08:08:37.405Z,97628.63
2018-11-25T08:11:06.114Z,97617.53
2018-11-25T08:13:34.643Z,97623.95
2018-11-25T08:16:03.193Z,97616.94
2018-11-25T08:18:31.683Z,97614.98
2018-11-25T08:21:00.201Z,97618.55
2018-11-25T08:23:28.709Z,97613.98
2018-11-25T08:25:57.203Z,97617.45
2018-11-25T08:28:25.707Z,97606.66
2018-11-25T08:30:54.225Z,97616.13
2018-11-25T08:33:22.708Z,97608.92
2018-11-25T08:35:51.252Z,97608.91
2018-11-25T08:38:19.735Z,97603.39
2018-11-25T08:40:48.347Z,97598.50
2018-11-25T08:43:16.822Z,97594.53
2018-11-25T08:45:45.335Z,97592.38
2018-11-25T08:48:13.802Z,97588.89
2018-11-25T08:50:42.306Z,97591.54
2018-11-25T08:53:10.786Z,97593.84
2018-11-25T08:55:39.282Z,97579.50
2018-11-25T08:58:07.977Z,97582.47
2018-11-25T09:00:37.076Z,97580.10
2018-11-25T09:03:05.600Z,97577.55
2018-11-25T09:05:34.927Z,97582.12
2018-11-25T09:08:02.676Z,97575.73
2018-11-25T09:10:31.185Z,97579.77
2018-11-25T09:12:59.727Z,97585.72
2018-11-25T09:15:29.622Z,97579.66
2018-11-25T09:17:58.269Z,97576.07
2018-11-25T09:20:26.781Z,97575.11
2018-11-25T09:22:55.329Z,97573.78
2018-11-25T09:25:28.883Z,97569.37
2018-11-25T09:27:58.163Z,97566.99
2018-11-25T09:30:27.666Z,97563.69
2018-11-25T09:32:56.213Z,97563.31
2018-11-25T09:35:25.242Z,97558.12
2018-11-25T09:37:53.773Z,97560.80
2018-11-25T09:40:23.546Z,97558.48
2018-11-25T09:42:52.099Z,97560.64
2018-11-25T09:45:21.113Z,97550.11
2018-11-25T09:47:50.059Z,97550.93
2018-11-25T09:50:20.403Z,97555.02
2018-11-25T09:52:48.942Z,97550.48
2018-11-25T09:55:18.427Z,97546.16
2018-11-25T09:57:50.188Z,97539.34
2018-11-25T10:00:28.399Z,97526.85
2018-11-25T10:02:56.948Z,97520.89
2018-11-25T10:05:25.475Z,97511.64
2018-11-25T10:07:54.022Z,97509.98
2018-11-25T10:10:23.574Z,97508.77
2018-11-25T10:12:52.136Z,97504.00
2018-11-25T10:15:21.836Z,97495.53
2018-11-25T10:17:50.372Z,97492.84
2018-11-25T10:20:20.007Z,97488.53
2018-11-25T10:22:48.541Z,97491.07
2018-11-25T10:25:17.442Z,97487.42
2018-11-25T10:27:46.028Z,97478.45
2018-11-25T10:30:23.150Z,97478.20
2018-11-25T10:32:52.778Z,97484.57
2018-11-25T10:35:21.298Z,97474.20
2018-11-25T10:37:49.830Z,97468.89
2018-11-25T10:40:19.439Z,97468.52
2018-11-25T10:42:48.006Z,97458.12
2018-11-25T10:45:17.605Z,97452.95
2018-11-25T10:47:46.148Z,97450.48
2018-11-25T10:50:16.561Z,97454.40
2018-11-25T10:52:45.107Z,97442.47
2018-11-25T10:55:14.501Z,97437.13
2018-11-25T10:57:43.936Z,97427.81
2018-11-25T11:00:36.550Z,97425.31
2018-11-25T11:03:11.571Z,97426.16
2018-11-25T11:05:45.240Z,97417.31
2018-11-25T11:08:13.768Z,97405.55
2018-11-25T11:10:42.263Z,97409.45
2018-11-25T11:13:10.819Z,97406.01
2018-11-25T11:15:39.347Z,97399.08
2018-11-25T11:18:08.222Z,97392.63
2018-11-25T11:20:36.730Z,97390.15
2018-11-25T11:23:05.327Z,97383.64
2018-11-25T11:25:33.823Z,97388.16
2018-11-25T11:28:02.363Z,97384.00
2018-11-25T11:30:30.887Z,97382.26
2018-11-25T11:32:59.415Z,97384.35
2018-11-25T11:35:27.946Z,97374.78
2018-11-25T11:37:56.480Z,97375.25
2018-11-25T11:40:24.969Z,97370.11
2018-11-25T11:42:53.510Z,97357.48
2018-11-25T11:45:21.997Z,97355.70
2018-11-25T11:47:50.523Z,97345.73
2018-11-25T11:50:20.544Z,97342.17
2018-11-25T11:52:49.061Z,97338.86
2018-11-25T11:55:18.309Z,97340.73
2018-11-25T11:57:47.590Z,97333.81
2018-11-25T12:00:25.644Z,97327.64
2018-11-25T12:02:54.189Z,97323.55
2018-11-25T12:05:22.689Z,97324.82
2018-11-25T12:07:51.227Z,97318.16
2018-11-25T12:10:20.031Z,97313.04
2018-11-25T12:12:48.566Z,97309.63
2018-11-25T12:15:19.648Z,97308.26
2018-11-25T12:17:48.167Z,97310.39
2018-11-25T12:20:16.630Z,97309.27
2018-11-25T12:22:45.564Z,97298.97
2018-11-25T12:25:15.955Z,97293.55
2018-11-25T12:27:44.530Z,97298.25
2018-11-25T12:30:15.033Z,97294.95
2018-11-25T12:32:44.551Z,97289.00
2018-11-25T12:35:14.094Z,97282.55
2018-11-25T12:37:42.836Z,97282.27
2018-11-25T12:40:12.892Z,97270.25
2018-11-25T12:42:41.941Z,97272.84
2018-11-25T12:45:12.355Z,97256.87
2018-11-25T12:47:40.862Z,97253.19
2018-11-25T12:50:11.110Z,97247.22
2018-11-25T12:52:39.660Z,97239.56
2018-11-25T12:55:11.926Z,97237.88
2018-11-25T12:57:40.624Z,97229.91
2018-11-25T13:00:16.947Z,97226.84
2018-11-25T13:02:45.614Z,97224.19
2018-11-25T13:05:17.493Z,97219.97
2018-11-25T13:07:46.010Z,97217.16
2018-11-25T13:10:14.736Z,97206.17
2018-11-25T13:12:43.250Z,97208.48
2018-11-25T13:15:11.780Z,97206.66
2018-11-25T13:17:40.252Z,97195.39
2018-11-25T13:20:12.101Z,97192.44
2018-11-25T13:22:40.968Z,97194.30
2018-11-25T13:25:10.882Z,97189.74
2018-11-25T13:27:39.477Z,97180.17
2018-11-25T13:30:12.835Z,97180.13
2018-11-25T13:32:41.446Z,97183.67
2018-11-25T13:35:10.463Z,97180.84
2018-11-25T13:37:39.017Z,97171.96
2018-11-25T13:40:10.203Z,97179.36
2018-11-25T13:42:38.712Z,97168.92
2018-11-25T13:45:06.014Z,97166.97
2018-11-25T13:47:34.506Z,97167.80
2018-11-25T13:50:03.066Z,97174.56
2018-11-25T13:52:31.570Z,97168.70
2018-11-25T13:55:01.358Z,97171.43
2018-11-25T13:57:29.860Z,97166.34
2018-11-25T13:59:58.454Z,97161.37
2018-11-25T14:02:27.016Z,97160.63
2018-11-25T14:04:55.994Z,97155.47
2018-11-25T14:07:24.481Z,97147.97
2018-11-25T14:09:53.003Z,97153.05
2018-11-25T14:12:21.515Z,97156.72
2018-11-25T14:14:50.039Z,97154.91
2018-11-25T14:17:18.535Z,97150.17
2018-11-25T14:19:47.084Z,97147.81
2018-11-25T14:22:15.671Z,97157.07
2018-11-25T14:24:44.206Z,97154.36
2018-11-25T14:27:12.721Z,97154.16
2018-11-25T14:29:41.235Z,97164.55
2018-11-25T14:32:10.035Z,97158.27
2018-11-25T14:34:38.545Z,97159.91
2018-11-25T14:37:07.108Z,97158.92
2018-11-25T14:39:35.647Z,97158.36
2018-11-25T14:42:04.166Z,97144.98
2018-11-25T14:44:32.670Z,97148.42
2018-11-25T14:47:01.262Z,97155.16
2018-11-25T14:49:30.064Z,97146.14
2018-11-25T14:51:59.823Z,97161.20
2018-11-25T14:54:28.323Z,97158.98
2018-11-25T14:56:56.936Z,97163.23
2018-11-25T14:59:25.407Z,97173.79
2018-11-25T15:01:53.975Z,97177.75
2018-11-25T15:04:22.503Z,97178.69
2018-11-25T15:06:51.059Z,97180.64
2018-11-25T15:09:19.564Z,97190.48
2018-11-25T15:11:48.080Z,97193.73
2018-11-25T15:14:16.615Z,97198.11
2018-11-25T15:16:45.178Z,97196.99
2018-11-25T15:19:13.670Z,97195.48
2018-11-25T15:21:42.243Z,97196.80
2018-11-25T15:24:10.780Z,97203.28
2018-11-25T15:26:39.348Z,97202.36
2018-11-25T15:29:07.866Z,97199.43
2018-11-25T15:31:36.423Z,97199.60
2018-11-25T15:34:04.980Z,97202.45
2018-11-25T15:36:33.544Z,97198.60
2018-11-25T15:39:02.058Z,97199.53
2018-11-25T15:41:30.598Z,97197.20
2018-11-25T15:43:59.107Z,97189.50
2018-11-25T15:46:27.637Z,97198.01
2018-11-25T15:48:56.182Z,97196.97
2018-11-25T15:51:25.610Z,97199.21
2018-11-25T15:53:54.159Z,97194.55
2018-11-25T15:56:22.840Z,97198.19
2018-11-25T15:58:52.242Z,97195.11
2018-11-25T16:01:20.786Z,97190.23
2018-11-25T16:03:49.315Z,97194.13
2018-11-25T16:06:24.287Z,97196.13
2018-11-25T16:08:52.826Z,97194.81
2018-11-25T16:11:21.390Z,97194.40
2018-11-25T16:13:49.899Z,97190.84
2018-11-25T16:16:18.416Z,97198.52
2018-11-25T16:18:46.917Z,97194.98
2018-11-25T16:21:15.478Z,97199.62
2018-11-25T16:23:43.959Z,97197.78
2018-11-25T16:26:50.773Z,97197.17
2018-11-25T16:29:23.770Z,97197.04
2018-11-25T16:31:52.294Z,97192.16
2018-11-25T16:34:20.794Z,97198.61
2018-11-25T16:36:49.988Z,97201.78
2018-11-25T16:39:18.482Z,97197.30
2018-11-25T16:41:47.005Z,97198.80
2018-11-25T16:44:15.522Z,97203.36
2018-11-25T16:46:44.041Z,97197.33
2018-11-25T16:49:12.648Z,97193.54
2018-11-25T16:51:41.180Z,97190.64
2018-11-25T16:54:09.770Z,97193.54
2018-11-25T16:56:38.255Z,97206.42
2018-11-25T16:59:06.810Z,97199.81
2018-11-25T17:01:35.322Z,97201.98
2018-11-25T17:04:03.866Z,97193.84
2018-11-25T17:06:32.958Z,97184.38
2018-11-25T17:09:01.472Z,97192.12
2018-11-25T17:11:31.088Z,97188.92
2018-11-25T17:13:59.635Z,97183.64
2018-11-25T17:16:28.150Z,97174.97
2018-11-25T17:18:56.698Z,97171.92
2018-11-25T17:21:25.175Z,97170.21
2018-11-25T17:23:54.818Z,97182.70
2018-11-25T17:26:23.307Z,97177.05
2018-11-25T17:28:51.828Z,97182.27
2018-11-25T17:31:20.390Z,97181.02
2018-11-25T17:33:48.891Z,97188.71
2018-11-25T17:36:17.410Z,97182.61
2018-11-25T17:38:45.924Z,97182.77
2018-11-25T17:41:14.414Z,97181.73
2018-11-25T17:43:42.916Z,97174.08
2018-11-25T17:46:11.938Z,97179.58
2018-11-25T17:48:40.455Z,97175.23
2018-11-25T17:51:08.950Z,97179.46
2018-11-25T17:53:37.807Z,97175.49
2018-11-25T17:56:06.823Z,97178.76
2018-11-25T17:58:35.394Z,97179.14
2018-11-25T18:01:06.047Z,97179.08
2018-11-25T18:03:36.173Z,97173.19
2018-11-25T18:06:04.858Z,97172.08
2018-11-25T18:08:33.454Z,97175.44
2018-11-25T18:11:02.062Z,97177.41
2018-11-25T18:13:34.051Z,97176.12
2018-11-25T18:16:03.826Z,97167.41
2018-11-25T18:18:50.103Z,97165.00
2018-11-25T18:21:21.607Z,97172.75
2018-11-25T18:23:50.123Z,97163.00
2018-11-25T18:26:18.706Z,97164.34
2018-11-25T18:28:47.226Z,97162.71
2018-11-25T18:31:15.721Z,97156.39
2018-11-25T18:33:44.345Z,97164.14
2018-11-25T18:36:14.325Z,97163.08
2018-11-25T18:38:42.857Z,97163.33
2018-11-25T18:41:11.411Z,97171.14
2018-11-25T18:43:40.205Z,97166.61
2018-11-25T18:46:08.759Z,97167.03
2018-11-25T18:48:39.443Z,97167.03
2018-11-25T18:51:07.983Z,97167.45
2018-11-25T18:53:37.714Z,97165.53
2018-11-25T18:56:06.518Z,97164.53
2018-11-25T18:58:35.022Z,97168.72
2018-11-25T19:01:13.910Z,97156.45
2018-11-25T19:03:44.005Z,97163.16
2018-11-25T19:06:12.551Z,97162.52
2018-11-25T19:08:41.195Z,97160.91
2018-11-25T19:11:09.695Z,97154.10
2018-11-25T19:13:38.213Z,97157.09
2018-11-25T19:16:06.798Z,97157.29
2018-11-25T19:18:35.610Z,97153.13
2018-11-25T19:21:04.112Z,97158.01
2018-11-25T19:23:32.610Z,97153.91
2018-11-25T19:26:01.091Z,97156.34
2018-11-25T19:28:29.608Z,97157.46
2018-11-25T19:30:58.084Z,97163.20
2018-11-25T19:33:28.047Z,97157.61
2018-11-25T19:35:56.549Z,97153.62
2018-11-25T19:38:25.033Z,97155.16
2018-11-25T19:40:53.534Z,97156.88
2018-11-25T19:43:22.075Z,97162.73
2018-11-25T19:45:50.556Z,97159.19
2018-11-25T19:48:19.060Z,97160.62
2018-11-25T19:50:47.559Z,97156.52
2018-11-25T19:53:16.093Z,97155.34
2018-11-25T19:55:44.578Z,97147.17
2018-11-25T19:58:13.096Z,97154.77
2018-11-25T20:00:41.570Z,97142.03
2018-11-25T20:03:10.061Z,97141.46
2018-11-25T20:05:38.600Z,97145.02
2018-11-25T20:08:07.778Z,97139.46
2018-11-25T20:10:36.301Z,97138.19
2018-11-25T20:13:05.131Z,97134.23
2018-11-25T20:15:33.666Z,97127.22
2018-11-25T20:18:02.170Z,97128.12
2018-11-25T20:20:30.698Z,97125.42
2018-11-25T20:22:59.235Z,97129.72
2018-11-25T20:25:27.740Z,97131.05
2018-11-25T20:27:56.963Z,97131.31
2018-11-25T20:30:29.016Z,97126.94
2018-11-25T20:33:02.695Z,97125.98
2018-11-25T20:35:31.226Z,97118.42
2018-11-25T20:38:05.083Z,97115.25
2018-11-25T20:40:33.627Z,97114.14
2018-11-25T20:43:02.114Z,97110.14
2018-11-25T20:45:39.084Z,97110.36
2018-11-25T20:48:04.453Z,97110.08
2018-11-25T20:50:32.977Z,97105.41
2018-11-25T20:53:06.683Z,97098.31
2018-11-25T20:55:35.183Z,97108.86
2018-11-25T20:58:03.682Z,97102.38
2018-11-25T21:01:56.662Z,97097.92
2018-11-25T21:04:25.169Z,97091.97
2018-11-25T21:06:53.634Z,97089.58
2018-11-25T21:09:22.182Z,97093.03
2018-11-25T21:11:50.654Z,97089.36
2018-11-25T21:14:19.200Z,97077.81
2018-11-25T21:16:47.703Z,97084.41
2018-11-25T21:19:16.180Z,97076.09
2018-11-25T21:21:44.711Z,97077.20
2018-11-25T21:24:13.203Z,97076.09
2018-11-25T21:26:41.839Z,97071.21
2018-11-25T21:29:10.501Z,97065.48
2018-11-25T21:31:39.025Z,97068.61
2018-11-25T21:34:07.526Z,97066.80
2018-11-25T21:36:36.020Z,97074.09
2018-11-25T21:39:07.352Z,97070.67
2018-11-25T21:41:35.858Z,97070.75
2018-11-25T21:44:04.382Z,97072.20
2018-11-25T21:46:32.857Z,97072.59
2018-11-25T21:49:01.326Z,97071.96
2018-11-25T21:51:29.913Z,97072.39
2018-11-25T21:53:58.411Z,97065.43
2018-11-25T21:56:26.944Z,97066.46
2018-11-25T21:58:55.419Z,97072.23
2018-11-25T22:01:23.963Z,97067.01
2018-11-25T22:03:52.445Z,97063.50
2018-11-25T22:06:20.955Z,97068.33
2018-11-25T22:08:49.938Z,97073.20
2018-11-25T22:11:18.466Z,97072.28
2018-11-25T22:13:46.942Z,97072.09
2018-11-25T22:16:15.461Z,97069.86
2018-11-25T22:18:43.958Z,97064.61
2018-11-25T22:21:12.477Z,97067.03
2018-11-25T22:23:40.934Z,97062.87
2018-11-25T22:26:09.541Z,97066.93
2018-11-25T22:28:38.021Z,97054.92
2018-11-25T22:31:07.210Z,97056.56
2018-11-25T22:33:35.751Z,97057.56
2018-11-25T22:36:04.309Z,97059.37
2018-11-25T22:38:32.814Z,97062.41
2018-11-25T22:41:01.344Z,97062.52
2018-11-25T22:43:29.806Z,97061.13
2018-11-25T22:45:58.328Z,97063.16
2018-11-25T22:48:26.817Z,97051.97
2018-11-25T22:50:55.367Z,97054.11
2018-11-25T22:53:23.889Z,97060.66
2018-11-25T22:55:52.399Z,97064.84
2018-11-25T22:58:20.950Z,97061.63
2018-11-25T23:00:52.542Z,97064.63
2018-11-25T23:03:22.119Z,97058.13
2018-11-25T23:08:02.289Z,97061.09
2018-11-25T23:10:30.813Z,97061.91
2018-11-25T23:12:59.370Z,97066.08
2018-11-25T23:15:27.875Z,97067.30
2018-11-25T23:17:56.394Z,97069.11
2018-11-25T23:20:24.891Z,97060.06
2018-11-25T23:22:53.474Z,97058.02
2018-11-25T23:25:21.982Z,97050.68
2018-11-25T23:27:50.507Z,97046.01
2018-11-25T23:30:18.986Z,97047.69
2018-11-25T23:32:47.510Z,97038.99
2018-11-25T23:35:20.463Z,97040.48
2018-11-25T23:37:48.974Z,97034.22
2018-11-25T23:40:17.461Z,97028.16
2018-11-25T23:42:46.052Z,97029.69
2018-11-25T23:45:15.658Z,97027.91
2018-11-25T23:47:44.226Z,97029.93
2018-11-25T23:50:13.691Z,97016.67
2018-11-25T23:52:43.230Z,97021.77
2018-11-25T23:55:13.801Z,97010.48
2018-11-25T23:57:42.359Z,97011.13
